Weather observations for the past three days for
Hailey, Friedman Memorial Airport
Metric (Imperial)
Date Time (mdt) Wind (kph) Vis. (km) Weather Sky Cond. Temperature (ºC) Relative Humidity Wind Chill (°C) Heat Index (°C) Pressure Precipitation (cm)
Air Dwpt 6 hour altimeter (cm) sea level (mb) 1 hr 3 hr 6 hr
Max. Min.
10 16:47 SE 19 16.09 Fair CLR 24 -8 11% 24 76.58 0.0
10 15:47 SE 19 G 33 16.09 Fair CLR 23 -3 17% 76.63 0.0
10 14:47 SE 15 16.09 Fair CLR 23 -3 17% 76.68 0.0
10 13:47 SE 19 16.09 Fair CLR 22 -3 19% 76.73 0.0
10 12:47 SE 15 16.09 Fair CLR 21 -3 20% 76.76 0.0
10 11:47 SE 19 16.09 Fair CLR 19 -1 26% 76.78 0.0
10 10:47 SE 19 16.09 Fair CLR 18 -2 26% 76.81 0.0
10 09:47 NW 15 16.09 Fair CLR 16 -3 27% 76.81 0.0
10 08:47 NW 19 G 30 16.09 Fair CLR 11 -3 38% 76.81 0.0
10 07:50 NW 19 16.09 Fair CLR 6 -4 49% 3 76.78 0.0
10 07:47 NW 19 G 30 16.09 Fair CLR 7 -4 46% 4 76.81 0.0
10 06:35 NW 20 G 28 16.09 Fair CLR 0 0 0% 76.76 0.0
10 06:15 NW 19 16.09 Fair CLR 0 0 0% 76.76 0.0
10 05:55 NW 22 16.09 Fair CLR 0 0 0% 76.76 0.0
10 05:35 NW 20 16.09 Fair CLR 0 0 0% 76.76 0.0
10 05:15 NW 20 G 26 16.09 Fair CLR 0 0 0% 76.76 0.0
10 04:55 NW 19 16.09 Fair CLR 0 0 0% 76.76 0.0
10 04:35 NW 17 16.09 Fair CLR 0 0 0% 76.76 0.0
10 04:15 NW 19 16.09 Fair CLR 0 0 0% 76.73 0.0
10 03:55 NW 17 16.09 Fair CLR 0 0 0% 76.73 0.0
10 03:35 NW 17 16.09 Fair CLR 0 0 0% 76.71 0.0
10 03:15 NW 19 16.09 Fair CLR 0 0 0% 76.71 0.0
10 02:55 NW 17 16.09 Fair CLR 0 0 0% 76.71 0.0
10 02:35 NW 15 16.09 Fair CLR 0 0 0% 76.71 0.0
10 02:15 NW 19 G 30 16.09 Fair CLR 0 0 0% 76.68 0.0
10 01:55 NW 15 16.09 Fair CLR 0 0 0% 76.68 0.0
10 01:35 NW 15 16.09 Fair CLR 0 0 0% 76.68 0.0
10 01:15 NW 17 16.09 Fair CLR 0 0 0% 76.68 0.0
10 00:55 NW 13 16.09 Fair CLR 0 0 0% 76.66 0.0
10 00:35 NW 17 16.09 Fair CLR 0 0 0% 76.66 0.0
10 00:15 NW 17 16.09 Fair CLR 0 0 0% 76.66 0.0
09 23:55 NW 19 16.09 Fair CLR 0 0 0% 76.63 0.0
09 23:35 W 15 16.09 Fair CLR 0 0 0% 76.61 0.0
09 23:15 NW 17 16.09 Fair CLR 0 0 0% 76.61 0.0
09 21:47 NW 13 16.09 Fair CLR 15 -7 21% 76.53 0.0
09 20:47 Calm 16.09 Fair CLR 18 -8 16% 76.43 0.0
09 19:47 NW 19 16.09 Fair CLR 21 -10 12% 76.38 0.0
09 18:47 NW 22 16.09 Fair CLR 23 -10 10% 76.35 0.0
09 17:47 NW 19 G 33 16.09 Fair CLR 22 -7 14% 76.35 0.0
09 16:48 S 17 16.09 Fair CLR 23 -8 12% 76.38 0.0
09 15:47 Calm 16.09 Fair CLR 22 -6 15% 76.45 0.0
09 14:47 SE 17 G 30 16.09 Fair CLR 21 -4 18% 76.48 0.0
09 13:47 S 19 G 30 16.09 Fair CLR 21 -4 18% 76.53 0.0
09 12:47 SE 15 G 31 16.09 Fair CLR 19 -4 21% 76.58 0.0
09 11:47 E 19 G 31 16.09 Fair CLR 18 -6 19% 76.58 0.0
09 10:50 SW 7 16.09 Fair CLR 17 -12 13% 76.61 0.0
09 09:50 NW 7 16.09 Fair CLR 16 -6 22% 76.61 0.0
09 08:50 NW 15 16.09 Fair CLR 11 -6 30% 76.61 0.0
09 07:50 NW 15 16.09 Fair CLR 6 -6 42% 3 76.61 0.0
09 06:50 NW 11 16.09 Fair CLR 3 -6 52% 0 76.56 0.0
09 06:35 NW 15 16.09 Fair CLR 0 0 0% 76.53 0.0
09 06:15 NW 17 16.09 Fair CLR 0 0 0% 76.53 0.0
09 05:55 NW 15 16.09 Fair CLR 0 0 0% 76.53 0.0
09 05:35 NW 17 16.09 Fair CLR 0 0 0% 76.5 0.0
09 05:15 NW 17 16.09 Fair CLR 0 0 0% 76.5 0.0
09 04:55 NW 13 16.09 Fair CLR 0 0 0% 76.5 0.0
09 04:35 NW 15 16.09 Fair CLR 0 0 0% 76.48 0.0
09 04:15 NW 15 16.09 Fair CLR 0 0 0% 76.48 0.0
09 03:55 N 11 16.09 Fair CLR 0 0 0% 76.45 0.0
09 03:35 NW 11 16.09 Fair CLR 0 0 0% 76.45 0.0
09 03:15 NW 7 16.09 Fair CLR 0 0 0% 76.45 0.0
09 02:55 NW 9 16.09 Fair CLR 0 0 0% 76.43 0.0
09 02:35 NW 11 16.09 Fair CLR 0 0 0% 76.43 0.0
09 02:15 NW 11 16.09 Fair CLR 0 0 0% 76.4 0.0
09 01:55 NW 11 16.09 Fair CLR 0 0 0% 76.4 0.0
09 01:35 N 15 16.09 Fair CLR 0 0 0% 76.4 0.0
09 01:15 NW 13 16.09 Fair CLR 0 0 0% 76.38 0.0
09 00:55 NW 13 16.09 Fair CLR 0 0 0% 76.38 0.0
09 00:35 NW 15 16.09 Fair CLR 0 0 0% 76.35 0.0
09 00:15 NW 17 16.09 Fair CLR 0 0 0% 76.35 0.0
08 23:55 NW 20 G 26 16.09 Fair CLR 0 0 0% 76.33 0.0
08 23:35 NW 19 G 31 16.09 Fair CLR 0 0 0% 76.3 0.0
08 23:15 NW 22 G 37 16.09 Fair CLR 0 0 0% 76.3 0.0
08 22:47 W 15 16.09 Fair CLR 17 -9 16% 76.28 0.0
08 19:55 W 11 16.09 Fair CLR 19 -8 15% 76.15 0.0
08 18:47 W 19 G 33 16.09 Fair CLR 21 -7 15% 76.15 0.0
08 17:47 W 19 16.09 Fair CLR 22 -6 15% 76.12 0.0
08 16:47 W 20 16.09 Fair CLR 24 -9 10% 24 76.12 0.0
08 15:47 W 15 16.09 Fair CLR 23 -7 13% 76.15 0.0
08 14:47 W 19 16.09 Fair CLR 23 -7 13% 76.15 0.0
08 13:47 E 19 16.09 Fair CLR 23 -2 19% 76.2 0.0
08 12:47 E 19 16.09 Fair CLR 21 -1 23% 76.3 0.0
08 11:47 SE 17 16.09 Fair CLR 19 -2 24% 76.35 0.0
08 10:47 SE 19 16.09 Fair CLR 18 -1 28% 76.4 0.0
08 09:47 NW 15 16.09 Fair CLR 16 -1 31% 76.4 0.0
08 08:47 NW 19 16.09 Fair CLR 12 -2 38% 76.43 0.0
08 07:47 NW 19 16.09 Fair CLR 8 -2 50% 5 76.43 0.0
08 06:50 NW 19 16.09 Fair CLR 7 -3 49% 4 76.38 0.0
08 06:35 NW 9 16.09 Fair CLR 0 0 0% 76.35 0.0
08 06:15 NW 13 16.09 Fair CLR 0 0 0% 76.35 0.0
08 05:55 NW 11 16.09 Fair CLR 0 0 0% 76.35 0.0
08 05:35 NW 13 16.09 Fair CLR 0 0 0% 76.33 0.0
08 05:15 NW 11 16.09 Fair CLR 0 0 0% 76.33 0.0
08 04:55 NW 9 16.09 Fair CLR 0 0 0% 76.3 0.0
08 04:35 NW 11 16.09 Fair CLR 0 0 0% 76.3 0.0
08 04:15 NW 15 16.09 Fair CLR 0 0 0% 76.28 0.0
08 03:55 NW 17 16.09 Fair CLR 0 0 0% 76.25 0.0
08 03:35 NW 17 16.09 Fair CLR 0 0 0% 76.25 0.0
08 03:15 W 17 16.09 Fair CLR 0 0 0% 76.25 0.0
08 02:55 NW 15 16.09 Fair CLR 0 0 0% 76.25 0.0
08 02:35 NW 17 16.09 Fair CLR 0 0 0% 76.25 0.0
08 02:15 NW 19 16.09 Fair CLR 0 0 0% 76.25 0.0
08 01:55 W 9 16.09 Fair CLR 0 0 0% 76.23 0.0
08 01:35 NW 22 16.09 Fair CLR 0 0 0% 76.23 0.0
08 01:15 N 15 16.09 Fair CLR 0 0 0% 76.23 0.0
08 00:55 NW 15 16.09 Fair CLR 0 0 0% 76.23 0.0
08 00:35 NW 19 16.09 Fair CLR 0 0 0% 76.2 0.0
08 00:15 NW 20 16.09 Fair CLR 0 0 0% 76.2 0.0
07 23:55 NW 20 16.09 Fair CLR 0 0 0% 76.2 0.0
07 23:35 NW 20 G 28 16.09 Fair CLR 0 0 0% 76.2 0.0
07 23:15 NW 17 16.09 Fair CLR 0 0 0% 76.2 0.0
07 22:47 NW 9 16.09 Fair CLR 13 -5 28% 76.23 0.0
07 21:47 N 15 16.09 Fair CLR 13 -4 31% 76.17 0.0
07 20:47 NE 11 16.09 Fair CLR 18 -5 21% 76.12 0.0
07 19:47 NW 17 16.09 Fair CLR 21 -6 16% 76.07 0.0
07 18:47 W 20 16.09 Fair CLR 22 -6 15% 76.05 0.0
07 17:47 NW 22 16.09 Fair CLR 23 -6 14% 76.05 0.0
Date Time (mdt) Wind (kph) Vis. (km) Weather Sky Cond. Air Dwpt Max. Min. Relative Humidity Wind Chill (°C) Heat Index (°C) altimeter (cm) sea level (mb) 1 hr 3 hr 6 hr
6 hour
Temperature (ºC) Pressure Precipitation (cm)